Time;durP1;ratioP1;P1;durP2;ratioP2;P2;SDS_P1;SDS_P2;PMS_P1;PMS_P2;Temp;Humidity;BMP_temperature;BMP_pressure;BME280_temperature;BME280_humidity;BME280_pressure;Samples;Min_cycle;Max_cycle;Signal;HPM_P1;HPM_P2
2023/09/27 00:00:46;;;;;;;6.75;6.25;;;;;;;13.46;100.00;101447.56;6055932;23;20084;-69
2023/09/27 00:03:12;;;;;;;7.70;7.00;;;;;;;13.50;100.00;101467.56;6055408;23;20043;-69
2023/09/27 00:05:39;;;;;;;10.40;6.70;;;;;;;12.77;100.00;101355.28;6056477;23;20094;-69
2023/09/27 00:08:06;;;;;;;6.72;6.32;;;;;;;13.52;100.00;101492.91;6056660;23;20026;-69
2023/09/27 00:10:33;;;;;;;7.18;6.68;;;;;;;13.72;100.00;101515.63;6085749;23;20040;-69
2023/09/27 00:12:59;;;;;;;7.03;6.53;;;;;;;13.71;100.00;101518.34;6053757;23;20100;-69
2023/09/27 00:15:26;;;;;;;6.70;6.30;;;;;;;13.33;100.00;101466.66;6084105;23;20032;-69
2023/09/27 00:17:52;;;;;;;6.57;6.18;;;;;;;13.68;100.00;101513.22;6057303;23;20053;-69
2023/09/27 00:20:20;;;;;;;7.05;6.55;;;;;;;13.65;100.00;101518.66;6078252;23;20097;-69
2023/09/27 00:22:46;;;;;;;7.38;6.68;;;;;;;13.63;100.00;101520.53;6053952;23;20046;-69
2023/09/27 00:25:14;;;;;;;7.15;6.65;;;;;;;13.14;100.00;101450.03;6054816;23;20041;-70
2023/09/27 00:27:41;;;;;;;6.35;5.95;;;;;;;13.56;100.00;101522.63;6056738;23;20030;-68
2023/09/27 00:30:13;;;;;;;6.90;6.47;;;;;;;13.55;100.00;101520.91;6053523;23;20085;-70
2023/09/27 00:32:40;;;;;;;6.75;6.22;;;;;;;13.53;100.00;101531.56;6083299;23;20014;-69
2023/09/27 00:35:14;;;;;;;7.00;6.50;;;;;;;13.49;100.00;101522.09;6053579;23;20560;-69
2023/09/27 00:37:41;;;;;;;7.15;6.45;;;;;;;13.46;100.00;101527.53;6079229;23;20492;-70
2023/09/27 00:40:12;;;;;;;6.43;6.03;;;;;;;13.45;100.00;101525.84;6055086;23;20014;-70
2023/09/27 00:42:39;;;;;;;6.40;6.00;;;;;;;13.45;100.00;101533.75;6055132;23;20388;-72
2023/09/27 00:45:07;;;;;;;7.40;6.80;;;;;;;13.43;100.00;101551.44;6083519;23;20022;-72
2023/09/27 00:47:37;;;;;;;7.72;6.93;;;;;;;13.38;100.00;101547.31;6057082;23;20057;-70
2023/09/27 00:50:07;;;;;;;7.75;7.05;;;;;;;13.12;100.00;101520.44;6083253;23;20028;-69
2023/09/27 00:52:39;;;;;;;6.82;6.22;;;;;;;13.17;100.00;101540.38;6056078;23;20631;-70
2023/09/27 00:55:11;;;;;;;6.72;6.30;;;;;;;13.21;100.00;101558.66;6079117;23;21111;-70
2023/09/27 00:57:38;;;;;;;6.83;6.33;;;;;;;13.18;100.00;101551.75;6056887;23;20025;-70
2023/09/27 01:00:09;;;;;;;6.78;6.28;;;;;;;12.66;100.00;101475.25;6082681;23;20030;-71
2023/09/27 01:02:37;;;;;;;6.38;5.88;;;;;;;12.65;100.00;101487.59;6052444;23;20010;-70
2023/09/27 01:05:08;;;;;;;6.35;5.95;;;;;;;12.93;100.00;101541.56;6037137;23;20022;-70
2023/09/27 01:07:37;;;;;;;7.07;6.38;;;;;;;13.03;100.00;101566.53;6084566;23;20037;-70
2023/09/27 01:10:04;;;;;;;6.93;6.43;;;;;;;12.55;100.00;101510.03;6054610;23;20075;-70
2023/09/27 01:12:31;;;;;;;6.50;5.70;;;;;;;12.95;100.00;101580.09;6081037;23;20018;-70
2023/09/27 01:14:57;;;;;;;6.50;6.10;;;;;;;12.74;100.00;101558.25;6051524;23;20024;-70
2023/09/27 01:17:24;;;;;;;6.57;6.13;;;;;;;12.88;100.00;101588.34;6081978;23;20093;-69
2023/09/27 01:19:50;;;;;;;6.50;6.10;;;;;;;12.87;100.00;101586.63;6052266;23;20026;-70
2023/09/27 01:22:17;;;;;;;6.22;5.82;;;;;;;12.38;100.00;101514.28;6057315;23;20453;-69
2023/09/27 01:24:44;;;;;;;6.70;6.25;;;;;;;12.86;100.00;101585.78;6076454;23;20026;-70
2023/09/27 01:27:13;;;;;;;6.75;6.28;;;;;;;12.78;100.00;101594.03;6053598;23;20102;-70
2023/09/27 01:29:39;;;;;;;5.82;5.50;;;;;;;12.24;100.00;101484.28;6060209;23;20030;-70
2023/09/27 01:32:06;;;;;;;7.30;6.80;;;;;;;12.59;100.00;101558.97;6052950;23;21183;-70
2023/09/27 01:34:35;;;;;;;8.00;7.20;;;;;;;12.01;100.00;101482.69;6078311;23;20020;-72
2023/09/27 01:37:01;;;;;;;6.63;6.03;;;;;;;12.33;100.00;101558.41;6052807;23;20042;-70
2023/09/27 01:39:30;;;;;;;6.72;6.13;;;;;;;12.40;100.00;101581.81;6081972;23;20014;-69
2023/09/27 01:41:57;;;;;;;6.70;6.30;;;;;;;12.11;100.00;101544.53;6056076;23;20058;-69
2023/09/27 01:44:23;;;;;;;6.55;6.05;;;;;;;12.44;100.00;101596.53;6079297;23;20037;-69
2023/09/27 01:46:50;;;;;;;6.40;6.00;;;;;;;12.41;100.00;101596.66;6055198;23;20379;-70
2023/09/27 01:49:16;;;;;;;6.93;6.40;;;;;;;12.38;100.00;101595.03;6055958;23;20052;-69
2023/09/27 01:51:43;;;;;;;6.60;6.10;;;;;;;12.35;100.00;101593.41;6055463;23;20038;-69
2023/09/27 01:54:09;;;;;;;6.97;6.40;;;;;;;12.32;100.00;101583.00;6048327;23;20037;-69
2023/09/27 01:56:36;;;;;;;7.22;6.53;;;;;;;12.27;100.00;101590.28;6082909;23;20097;-71
2023/09/27 01:59:02;;;;;;;7.03;6.53;;;;;;;11.16;100.00;101407.53;6051969;23;20042;-70
2023/09/27 02:01:29;;;;;;;6.70;6.28;;;;;;;12.31;100.00;101597.09;6074360;23;20574;-71
2023/09/27 02:03:56;;;;;;;7.38;6.47;;;;;;;11.88;100.00;101535.81;6050834;23;20029;-70
2023/09/27 02:06:23;;;;;;;7.03;6.43;;;;;;;12.28;100.00;101601.66;6078382;23;20649;-68
2023/09/27 02:08:49;;;;;;;6.72;6.15;;;;;;;12.16;100.00;101588.09;6055718;23;20034;-69
2023/09/27 02:11:19;;;;;;;6.72;6.28;;;;;;;12.27;100.00;101603.44;6051694;23;20033;-70
2023/09/27 02:13:46;;;;;;;6.28;5.88;;;;;;;12.28;100.00;101605.13;6053463;23;20026;-71
2023/09/27 02:16:12;;;;;;;5.90;5.57;;;;;;;11.88;100.00;101538.44;6061070;23;20052;-68
2023/09/27 02:18:39;;;;;;;6.47;6.05;;;;;;;12.24;100.00;101614.06;6050230;23;20027;-71
2023/09/27 02:21:06;;;;;;;6.47;5.97;;;;;;;12.24;100.00;101621.13;6078811;23;20028;-70
2023/09/27 02:23:32;;;;;;;6.38;5.97;;;;;;;12.21;100.00;101623.88;6046491;23;20023;-68
2023/09/27 02:25:58;;;;;;;6.40;5.97;;;;;;;12.12;100.00;101610.22;6081832;23;20043;-70
2023/09/27 02:28:25;;;;;;;6.88;6.43;;;;;;;12.17;100.00;101616.13;6054016;23;20543;-69
2023/09/27 02:30:51;;;;;;;5.90;5.60;;;;;;;12.07;100.00;101595.56;6053716;23;20046;-69
2023/09/27 02:33:18;;;;;;;6.43;5.85;;;;;;;12.00;100.00;101586.22;6082698;23;20055;-68
2023/09/27 02:35:45;;;;;;;6.53;6.10;;;;;;;11.73;100.00;101547.03;6053035;23;20029;-71
2023/09/27 02:38:11;;;;;;;6.90;6.40;;;;;;;12.06;100.00;101604.38;6082457;23;20054;-70
2023/09/27 02:40:40;;;;;;;7.45;6.95;;;;;;;12.02;100.00;101590.50;6028875;23;20022;-71
2023/09/27 02:43:06;;;;;;;6.70;6.25;;;;;;;11.98;100.00;101579.25;6080396;23;20037;-70
2023/09/27 02:45:34;;;;;;;6.88;6.38;;;;;;;11.26;100.00;101465.81;6054446;23;20018;-70
2023/09/27 02:48:01;;;;;;;6.60;6.20;;;;;;;11.58;100.00;101520.47;6086085;23;20030;-70
2023/09/27 02:50:28;;;;;;;7.53;6.90;;;;;;;11.94;100.00;101563.66;6055796;23;20029;-70
2023/09/27 02:52:54;;;;;;;6.93;6.43;;;;;;;11.97;100.00;101566.19;6057795;23;20051;-70
2023/09/27 02:55:23;;;;;;;7.45;6.88;;;;;;;12.00;100.00;101571.28;6085862;23;20037;-70
2023/09/27 02:57:50;;;;;;;6.95;6.35;;;;;;;12.00;100.00;101584.44;6058746;23;20033;-70
2023/09/27 03:00:21;;;;;;;7.35;6.78;;;;;;;12.04;100.00;101579.91;6086447;23;20082;-70
2023/09/27 03:02:48;;;;;;;6.65;6.15;;;;;;;12.06;100.00;101585.94;6051633;23;20042;-70
2023/09/27 03:05:15;;;;;;;12.93;8.23;;;;;;;12.08;100.00;101595.47;6055127;23;20018;-70
2023/09/27 03:07:44;;;;;;;9.77;8.25;;;;;;;12.11;100.00;101597.16;6085668;23;20029;-70
2023/09/27 03:10:11;;;;;;;13.18;7.85;;;;;;;12.14;100.00;101607.53;6053929;23;20018;-70
2023/09/27 03:12:39;;;;;;;7.97;7.18;;;;;;;12.14;100.00;101592.56;6053564;23;20563;-70
2023/09/27 03:15:11;;;;;;;9.15;8.27;;;;;;;11.76;100.00;101531.09;6053987;23;20948;-70
2023/09/27 03:17:43;;;;;;;8.00;7.40;;;;;;;12.13;100.00;101567.19;6057710;23;20061;-70
2023/09/27 03:20:18;;;;;;;8.07;7.28;;;;;;;11.70;100.00;101505.94;6104762;23;20050;-70
2023/09/27 03:22:46;;;;;;;7.25;6.70;;;;;;;11.76;100.00;101510.06;6056127;23;20049;-70
2023/09/27 03:25:13;;;;;;;7.43;6.88;;;;;;;12.28;100.00;101597.22;6058885;23;20029;-69
2023/09/27 03:27:39;;;;;;;7.50;6.80;;;;;;;12.23;100.00;101593.97;6054159;23;20042;-70
2023/09/27 03:30:06;;;;;;;7.45;6.80;;;;;;;11.53;100.00;101483.03;6059452;23;20027;-70
2023/09/27 03:32:33;;;;;;;8.07;7.32;;;;;;;12.16;100.00;101597.78;6036825;23;20547;-70
2023/09/27 03:35:00;;;;;;;7.20;6.68;;;;;;;12.05;100.00;101579.00;6056130;23;20700;-70
2023/09/27 03:37:26;;;;;;;7.70;6.10;;;;;;;12.05;100.00;101589.53;6055679;23;20034;-70
2023/09/27 03:39:53;;;;;;;7.53;6.75;;;;;;;11.74;100.00;101548.72;6055119;23;20081;-70
2023/09/27 03:42:20;;;;;;;7.55;7.03;;;;;;;12.07;100.00;101595.56;6059998;23;20029;-70
2023/09/27 03:44:50;;;;;;;7.47;6.68;;;;;;;12.08;100.00;101602.53;6052119;23;20379;-70
2023/09/27 03:47:16;;;;;;;7.47;6.88;;;;;;;12.11;100.00;101613.78;6052846;23;20181;-70
2023/09/27 03:49:43;;;;;;;7.20;6.60;;;;;;;12.13;100.00;101595.31;6031897;23;20038;-70
2023/09/27 03:52:10;;;;;;;7.88;7.07;;;;;;;12.16;100.00;101614.41;6057305;23;20014;-71
2023/09/27 03:54:36;;;;;;;7.22;6.53;;;;;;;12.18;100.00;101620.47;6079879;23;20061;-70
2023/09/27 03:57:04;;;;;;;8.90;7.57;;;;;;;11.98;100.00;101581.88;6053063;23;20063;-70
2023/09/27 03:59:30;;;;;;;7.97;7.25;;;;;;;12.19;100.00;101616.06;6082935;23;20088;-70
2023/09/27 04:01:56;;;;;;;7.50;6.90;;;;;;;12.15;100.00;101606.63;6055731;23;20047;-70
2023/09/27 04:04:24;;;;;;;6.68;6.15;;;;;;;12.23;100.00;101614.13;6079253;23;20038;-70
2023/09/27 04:06:51;;;;;;;7.10;6.50;;;;;;;12.23;100.00;101619.41;6057789;23;20045;-71
2023/09/27 04:09:18;;;;;;;7.28;6.70;;;;;;;11.98;100.00;101575.75;6056628;23;20018;-70
2023/09/27 04:11:44;;;;;;;8.55;6.95;;;;;;;11.70;100.00;101529.59;6029804;23;20429;-70
2023/09/27 04:14:11;;;;;;;8.15;7.43;;;;;;;12.19;100.00;101631.88;6057231;23;20037;-70
2023/09/27 04:16:38;;;;;;;10.05;7.05;;;;;;;12.17;100.00;101629.28;6053434;23;20103;-70
2023/09/27 04:19:04;;;;;;;8.90;6.85;;;;;;;12.16;100.00;101629.34;6078261;23;20534;-70
2023/09/27 04:21:31;;;;;;;7.05;6.35;;;;;;;12.15;100.00;101633.78;6054642;23;20033;-70
2023/09/27 04:23:59;;;;;;;7.30;6.70;;;;;;;12.01;100.00;101611.59;6078230;23;20036;-70
2023/09/27 04:26:26;;;;;;;7.03;6.50;;;;;;;12.12;100.00;101646.19;6053201;23;20528;-70
2023/09/27 04:28:53;;;;;;;7.13;6.63;;;;;;;12.11;100.00;101631.34;6053549;23;20030;-70
2023/09/27 04:31:20;;;;;;;6.85;6.25;;;;;;;12.10;100.00;101642.78;6083462;23;20064;-70
2023/09/27 04:33:47;;;;;;;6.55;6.05;;;;;;;12.06;100.00;101625.41;6054707;23;20030;-70
2023/09/27 04:36:17;;;;;;;7.60;6.88;;;;;;;11.97;100.00;101609.13;6084460;23;20098;-70
2023/09/27 04:38:45;;;;;;;7.47;6.78;;;;;;;12.04;100.00;101617.59;6054831;23;20030;-70
2023/09/27 04:41:15;;;;;;;8.18;7.38;;;;;;;12.03;100.00;101642.19;6083699;23;20029;-70
2023/09/27 04:43:42;;;;;;;7.13;6.63;;;;;;;11.99;100.00;101632.72;6054508;23;20026;-70
2023/09/27 04:46:14;;;;;;;6.88;6.28;;;;;;;11.95;100.00;101639.91;6085329;23;20033;-70
2023/09/27 04:48:40;;;;;;;6.32;5.85;;;;;;;11.94;100.00;101638.16;6056468;23;20026;-70
2023/09/27 04:51:07;;;;;;;7.47;6.93;;;;;;;11.94;100.00;101648.69;6089560;23;20730;-70
2023/09/27 04:53:37;;;;;;;6.40;6.00;;;;;;;11.91;100.00;101645.38;6057315;23;20082;-70
2023/09/27 04:56:06;;;;;;;7.38;6.75;;;;;;;11.76;100.00;101642.41;6053821;23;20025;-70
2023/09/27 04:58:33;;;;;;;6.57;6.07;;;;;;;11.79;100.00;101651.97;6058701;23;20025;-70
2023/09/27 05:01:02;;;;;;;6.28;5.88;;;;;;;11.70;100.00;101644.44;6083059;23;20475;-70
2023/09/27 05:03:28;;;;;;;7.35;6.85;;;;;;;11.71;100.00;101648.81;6053984;23;20030;-70
2023/09/27 05:05:55;;;;;;;6.28;5.88;;;;;;;11.66;100.00;101654.22;6080967;23;20048;-71
2023/09/27 05:08:21;;;;;;;6.65;6.20;;;;;;;11.64;100.00;101642.91;6033149;23;20068;-70
2023/09/27 05:10:48;;;;;;;7.00;6.50;;;;;;;11.26;100.00;101590.16;6083245;23;20092;-70
2023/09/27 05:13:14;;;;;;;7.05;6.53;;;;;;;11.49;100.00;101638.31;6054912;23;20025;-70
2023/09/27 05:15:41;;;;;;;7.30;6.65;;;;;;;11.46;100.00;101626.13;6080768;23;20055;-70
2023/09/27 05:18:07;;;;;;;7.25;6.65;;;;;;;11.47;100.00;101633.09;6029032;23;20026;-70
2023/09/27 05:20:35;;;;;;;6.68;6.25;;;;;;;11.28;100.00;101601.44;6054414;23;20103;-70
2023/09/27 05:23:02;;;;;;;7.20;6.70;;;;;;;11.12;100.00;101580.19;6052462;23;20052;-71
2023/09/27 05:25:28;;;;;;;6.72;6.22;;;;;;;11.32;100.00;101620.59;6055975;23;20048;-70
2023/09/27 05:27:56;;;;;;;6.55;6.10;;;;;;;11.05;100.00;101578.75;6080251;23;20093;-70
2023/09/27 05:30:23;;;;;;;7.55;5.97;;;;;;;11.38;100.00;101641.34;6053162;23;20089;-70
2023/09/27 05:32:49;;;;;;;6.60;6.07;;;;;;;10.80;100.00;101528.97;6051862;23;20183;-70
2023/09/27 05:35:16;;;;;;;6.22;5.82;;;;;;;11.06;100.00;101585.69;6056752;23;20026;-70
2023/09/27 05:37:44;;;;;;;6.13;5.63;;;;;;;11.52;100.00;101674.97;6054322;23;20034;-70
2023/09/27 05:40:11;;;;;;;7.18;6.60;;;;;;;11.55;100.00;101682.75;6057940;23;20085;-70
2023/09/27 05:42:38;;;;;;;7.40;6.88;;;;;;;11.61;100.00;101689.53;6081960;23;20115;-71
2023/09/27 05:45:06;;;;;;;6.65;6.15;;;;;;;11.67;100.00;101684.88;6051871;23;20021;-70
2023/09/27 05:47:33;;;;;;;7.32;6.63;;;;;;;11.52;100.00;101641.66;6083079;23;20025;-70
2023/09/27 05:49:59;;;;;;;6.57;6.18;;;;;;;11.82;100.00;101677.28;6051629;23;20046;-71
2023/09/27 05:52:27;;;;;;;6.90;6.40;;;;;;;11.56;100.00;101622.19;6052334;23;20022;-70
2023/09/27 05:54:53;;;;;;;7.03;6.53;;;;;;;12.05;100.00;101668.44;6055582;23;20011;-70
2023/09/27 05:57:21;;;;;;;6.40;6.00;;;;;;;11.93;100.00;101630.38;6080782;23;20651;-70
2023/09/27 05:59:48;;;;;;;6.68;6.07;;;;;;;12.35;100.00;101674.16;6052681;23;20014;-70
2023/09/27 06:02:19;;;;;;;13.88;7.32;;;;;;;12.12;100.00;101609.34;6084758;23;20020;-70
2023/09/27 06:08:27;;;;;;;7.25;6.55;;;;;;;12.93;100.00;101697.03;6078080;23;20650;-70
2023/09/27 06:10:53;;;;;;;7.35;6.80;;;;;;;13.06;100.00;101690.25;6053624;23;20014;-71
2023/09/27 06:13:20;;;;;;;8.27;7.15;;;;;;;12.86;100.00;101646.38;6051269;23;19998;-71
2023/09/27 06:15:49;;;;;;;8.07;7.30;;;;;;;13.16;100.00;101678.34;6083543;23;20017;-71
2023/09/27 06:18:16;;;;;;;7.47;6.80;;;;;;;13.42;100.00;101691.25;6052717;23;20086;-71
2023/09/27 06:20:43;;;;;;;7.88;7.18;;;;;;;13.48;100.00;101686.50;6051596;23;20013;-71
2023/09/27 06:23:10;;;;;;;8.35;7.65;;;;;;;13.45;100.00;101676.13;6077180;23;20018;-70
2023/09/27 06:25:37;;;;;;;8.30;7.50;;;;;;;13.33;100.00;101666.16;6051993;23;20087;-70
2023/09/27 06:28:04;;;;;;;8.30;7.68;;;;;;;13.11;100.00;101632.91;6084090;23;20033;-70
2023/09/27 06:30:30;;;;;;;8.32;7.63;;;;;;;13.14;100.00;101650.34;6051611;23;20022;-70
2023/09/27 06:32:57;;;;;;;7.63;7.03;;;;;;;13.10;100.00;101644.38;6053276;23;20037;-70
2023/09/27 06:35:24;;;;;;;7.68;7.07;;;;;;;12.95;100.00;101606.44;6082634;23;20038;-70
2023/09/27 06:37:50;;;;;;;7.43;6.82;;;;;;;13.20;100.00;101649.22;6054369;23;20045;-70
2023/09/27 06:40:19;;;;;;;9.25;7.68;;;;;;;12.96;100.00;101602.00;6053237;23;20095;-70
2023/09/27 06:42:49;;;;;;;18.58;17.35;;;;;;;13.16;100.00;101630.88;6039605;23;20105;-68
2023/09/27 06:45:16;;;;;;;7.88;7.10;;;;;;;12.73;100.00;101556.53;5952379;23;20025;-70
2023/09/27 06:47:47;;;;;;;8.35;7.65;;;;;;;13.21;100.00;101632.44;6045161;23;20037;-70
2023/09/27 06:50:16;;;;;;;7.75;7.00;;;;;;;13.25;100.00;101623.47;6052271;23;20014;-70
2023/09/27 06:52:45;;;;;;;7.43;6.93;;;;;;;12.40;100.00;101473.88;6053793;23;20115;-71
2023/09/27 06:55:13;;;;;;;7.97;7.38;;;;;;;13.28;100.00;101618.91;6026737;23;20028;-70
2023/09/27 06:57:40;;;;;;;7.40;6.80;;;;;;;13.41;100.00;101623.59;6081699;23;20014;-70
2023/09/27 07:00:18;;;;;;;8.45;7.70;;;;;;;13.53;100.00;101630.91;6052306;23;20492;-71
2023/09/27 07:02:48;;;;;;;7.97;6.95;;;;;;;13.59;100.00;101622.72;6051454;23;20093;-71
2023/09/27 07:05:16;;;;;;;7.80;7.07;;;;;;;13.74;100.00;101629.84;6050544;23;20018;-71
2023/09/27 07:07:43;;;;;;;7.82;7.22;;;;;;;13.89;100.00;101616.78;6043586;23;20035;-71
2023/09/27 07:10:09;;;;;;;8.45;7.75;;;;;;;14.07;100.00;101623.78;6049399;23;20030;-72
2023/09/27 07:12:36;;;;;;;8.00;7.35;;;;;;;14.24;100.00;101620.25;6048973;23;20681;-71
2023/09/27 07:15:12;;;;;;;7.57;6.88;;;;;;;14.20;100.00;101589.66;6049577;23;20030;-71
2023/09/27 07:17:40;;;;;;;8.27;7.57;;;;;;;14.45;100.00;101598.91;6076002;23;20046;-72
2023/09/27 07:20:28;;;;;;;7.47;6.93;;;;;;;14.76;100.00;101625.38;6051368;23;20077;-71
2023/09/27 07:22:56;;;;;;;7.55;6.95;;;;;;;14.95;100.00;101622.59;6076495;23;20026;-71
2023/09/27 07:25:23;;;;;;;8.30;7.53;;;;;;;15.12;100.00;101618.13;6049615;23;20540;-70
2023/09/27 07:27:53;;;;;;;9.35;8.50;;;;;;;15.24;100.00;101614.78;6047661;23;20467;-71
2023/09/27 07:30:23;;;;;;;8.68;7.88;;;;;;;15.48;100.00;101609.03;6053240;23;20007;-71
2023/09/27 07:32:51;;;;;;;8.18;7.32;;;;;;;15.75;100.00;101610.09;6083549;23;20118;-71
2023/09/27 07:35:18;;;;;;;9.32;8.40;;;;;;;15.91;100.00;101602.06;6054002;23;21221;-71
2023/09/27 07:37:45;;;;;;;7.63;7.07;;;;;;;15.40;100.00;101485.16;6034134;23;20697;-71
2023/09/27 07:40:13;;;;;;;8.85;8.05;;;;;;;15.95;100.00;101523.31;6082394;23;20025;-71
2023/09/27 07:42:44;;;;;;;8.73;7.82;;;;;;;15.78;100.00;101482.00;6050809;23;20018;-70
2023/09/27 07:45:22;;;;;;;9.18;8.38;;;;;;;15.75;100.00;101446.00;6081002;23;20121;-72
2023/09/27 07:47:53;;;;;;;7.45;6.95;;;;;;;15.93;100.00;101451.09;6056586;23;20927;-71
2023/09/27 07:50:22;;;;;;;7.45;6.85;;;;;;;15.83;100.00;101410.25;6084791;23;20049;-71
2023/09/27 07:52:48;;;;;;;7.35;6.85;;;;;;;16.03;100.00;101414.28;6054016;23;20037;-71
2023/09/27 07:55:17;;;;;;;8.07;7.38;;;;;;;16.15;100.00;101403.75;6056360;23;20026;-71
2023/09/27 07:57:44;;;;;;;8.15;7.30;;;;;;;16.24;100.00;101393.53;6079721;23;20025;-72
2023/09/27 08:00:15;;;;;;;8.27;7.47;;;;;;;15.86;100.00;101290.97;6056940;23;20076;-71
2023/09/27 08:02:45;;;;;;;7.60;7.00;;;;;;;16.38;100.00;101351.09;6054688;23;20022;-70
2023/09/27 08:05:14;;;;;;;9.75;7.65;;;;;;;15.80;100.00;101225.22;6037231;23;20027;-72
2023/09/27 08:07:40;;;;;;;8.55;7.85;;;;;;;16.14;100.00;101235.25;6053139;23;20063;-71
2023/09/27 08:10:10;;;;;;;8.40;7.60;;;;;;;16.76;100.00;101310.56;6025565;23;20090;-71
2023/09/27 08:12:47;;;;;;;7.47;6.88;;;;;;;16.37;100.00;101230.19;6055215;23;20023;-71
2023/09/27 08:15:14;;;;;;;11.88;7.85;;;;;;;16.69;100.00;101280.97;6026191;23;20516;-70
2023/09/27 08:17:42;;;;;;;7.63;7.03;;;;;;;17.01;100.00;101300.94;6031140;23;20612;-71
2023/09/27 08:20:11;;;;;;;8.48;7.72;;;;;;;17.33;100.00;101311.94;6026639;23;20453;-71
2023/09/27 08:22:41;;;;;;;13.88;8.05;;;;;;;17.11;100.00;101202.06;6029680;23;20619;-72
2023/09/27 08:25:14;;;;;;;8.50;7.90;;;;;;;17.76;100.00;101229.22;6025188;23;20027;-71
2023/09/27 08:27:44;;;;;;;7.68;7.03;;;;;;;17.74;100.00;101173.59;6052064;23;20612;-71
2023/09/27 08:30:11;;;;;;;8.00;7.40;;;;;;;17.63;100.00;101124.91;6026010;23;20034;-71
2023/09/27 08:32:38;;;;;;;7.82;7.22;;;;;;;18.18;100.00;101173.00;6052994;23;20030;-70
2023/09/27 08:35:06;;;;;;;7.93;7.40;;;;;;;18.40;100.00;101180.16;6026777;23;20030;-71
2023/09/27 08:37:33;;;;;;;7.80;7.10;;;;;;;18.36;100.00;101150.31;6056075;23;20045;-71
2023/09/27 08:40:01;;;;;;;7.97;7.38;;;;;;;18.36;100.00;101109.63;6027966;23;20093;-71
2023/09/27 08:42:29;;;;;;;8.25;7.15;;;;;;;18.28;99.48;101087.19;6023452;23;20648;-71
2023/09/27 08:44:57;;;;;;;7.72;7.13;;;;;;;18.16;99.38;101080.13;6058407;23;20041;-71
2023/09/27 08:47:24;;;;;;;7.30;6.80;;;;;;;17.99;98.04;101048.75;6025650;23;20047;-71
2023/09/27 08:49:51;;;;;;;9.98;7.70;;;;;;;17.74;98.36;101042.66;6053210;23;20033;-70
2023/09/27 08:52:18;;;;;;;7.82;7.22;;;;;;;17.69;99.77;101060.75;6027094;23;20038;-71
2023/09/27 08:54:45;;;;;;;7.90;7.20;;;;;;;17.80;100.00;101068.75;6027807;23;20453;-71
2023/09/27 08:57:12;;;;;;;7.53;7.03;;;;;;;18.27;100.00;101104.06;6053175;23;20030;-71
2023/09/27 08:59:39;;;;;;;7.82;7.22;;;;;;;18.47;98.44;101088.38;6027745;23;20389;-71
2023/09/27 09:02:06;;;;;;;7.93;7.32;;;;;;;18.36;93.83;100977.59;6053364;23;20416;-71
2023/09/27 09:04:35;;;;;;;7.70;7.10;;;;;;;18.72;90.25;100960.50;6040016;23;20092;-71
2023/09/27 09:07:02;;;;;;;7.47;6.88;;;;;;;18.53;91.55;100939.03;6057046;23;20026;-71
2023/09/27 09:09:30;;;;;;;7.38;6.90;;;;;;;18.79;89.26;100933.41;6055182;23;20397;-71
2023/09/27 09:12:00;;;;;;;7.85;7.15;;;;;;;19.26;91.44;101024.34;6082121;23;20021;-71
2023/09/27 09:14:44;;;;;;;7.53;7.03;;;;;;;18.78;89.02;100902.44;6057203;23;20022;-71
2023/09/27 09:17:15;;;;;;;7.93;7.32;;;;;;;19.30;85.84;100914.88;6053838;23;20054;-71
2023/09/27 09:19:42;;;;;;;7.55;7.05;;;;;;;18.83;84.64;100833.81;6052876;23;20059;-71
2023/09/27 09:22:12;;;;;;;7.78;7.28;;;;;;;19.57;85.26;100945.41;6053225;23;20042;-70
2023/09/27 09:24:45;;;;;;;7.38;6.88;;;;;;;19.64;83.45;100917.25;6051606;23;20100;-70
2023/09/27 09:27:13;;;;;;;7.60;7.05;;;;;;;19.47;82.34;100877.97;6084444;23;20081;-71
2023/09/27 09:29:49;;;;;;;7.25;6.75;;;;;;;19.89;83.27;100955.97;6052511;23;20022;-71
2023/09/27 09:32:18;;;;;;;7.47;6.97;;;;;;;19.88;81.81;100890.34;6056209;23;20144;-72
2023/09/27 09:34:51;;;;;;;7.80;7.20;;;;;;;19.84;81.11;100896.06;6028307;23;20073;-71
2023/09/27 09:37:18;;;;;;;7.70;7.20;;;;;;;20.00;80.80;100895.56;6054655;23;20026;-71
2023/09/27 09:39:47;;;;;;;6.65;6.25;;;;;;;19.93;82.39;100952.06;6089197;23;20638;-71
2023/09/27 09:42:30;;;;;;;7.60;7.10;;;;;;;19.97;81.67;100917.16;6062194;23;20040;-71
2023/09/27 09:45:06;;;;;;;8.45;7.90;;;;;;;20.20;80.79;100912.44;6073315;23;20128;-72
2023/09/27 09:47:35;;;;;;;6.68;6.25;;;;;;;20.49;78.96;100905.31;6054442;23;20520;-71
2023/09/27 09:50:08;;;;;;;7.55;7.05;;;;;;;20.64;76.66;100854.25;6051492;23;20003;-71
2023/09/27 09:52:39;;;;;;;6.72;6.32;;;;;;;20.79;76.79;100862.66;6082182;23;20037;-72
2023/09/27 09:55:11;;;;;;;7.50;6.80;;;;;;;20.68;76.63;100855.66;6053225;23;20025;-72
2023/09/27 09:58:29;;;;;;;6.80;6.40;;;;;;;20.37;75.35;100793.66;6082713;23;20057;-70
2023/09/27 10:00:58;;;;;;;6.95;5.70;;;;;;;20.47;77.20;100867.28;6042574;23;20653;-70
2023/09/27 10:03:30;;;;;;;7.53;6.93;;;;;;;20.90;76.54;100902.53;6076866;23;20030;-70
2023/09/27 10:06:01;;;;;;;6.88;6.38;;;;;;;20.77;74.06;100809.47;6055616;23;20030;-70
2023/09/27 10:08:37;;;;;;;7.18;6.68;;;;;;;21.21;75.38;100902.31;6052894;23;20033;-70
2023/09/27 10:11:04;;;;;;;6.63;6.22;;;;;;;20.87;72.59;100790.78;6027285;23;20613;-71
2023/09/27 10:13:33;;;;;;;6.80;6.40;;;;;;;21.51;72.96;100869.25;6080424;23;20085;-70
2023/09/27 10:16:00;;;;;;;6.85;6.38;;;;;;;20.78;68.94;100626.28;6053091;23;20082;-70
2023/09/27 10:18:33;;;;;;;7.30;6.80;;;;;;;21.69;70.79;100853.28;6083318;23;20021;-71
2023/09/27 10:21:07;;;;;;;6.90;6.50;;;;;;;21.81;67.53;100757.72;6049992;23;20038;-71
2023/09/27 10:23:46;;;;;;;6.90;6.50;;;;;;;21.98;70.47;100865.63;6051043;23;20538;-72
2023/09/27 10:26:28;;;;;;;7.30;6.80;;;;;;;22.16;70.19;100876.34;6081124;23;20030;-71
2023/09/27 10:29:02;;;;;;;7.20;6.60;;;;;;;22.41;69.07;100877.44;6051896;23;20545;-72
2023/09/27 10:31:30;;;;;;;7.28;6.70;;;;;;;22.73;69.40;100932.25;6080410;23;20034;-71
2023/09/27 10:33:57;;;;;;;7.70;7.13;;;;;;;23.07;67.96;100911.84;6052659;23;20034;-71
2023/09/27 10:36:23;;;;;;;7.00;6.55;;;;;;;23.40;68.43;100952.19;6080817;23;20104;-71
2023/09/27 10:38:50;;;;;;;7.32;6.80;;;;;;;23.49;64.23;100766.44;6057753;23;21399;-72
2023/09/27 10:41:32;;;;;;;7.68;7.18;;;;;;;23.56;62.78;100758.56;6080840;23;20104;-70
2023/09/27 10:44:02;;;;;;;7.10;6.70;;;;;;;23.67;63.61;100814.53;6046899;23;20572;-71
2023/09/27 10:46:42;;;;;;;7.03;6.60;;;;;;;23.44;62.45;100703.63;6028565;23;20092;-72
2023/09/27 10:49:09;;;;;;;6.97;6.57;;;;;;;23.59;62.18;100744.00;6078264;23;20043;-71
2023/09/27 10:51:37;;;;;;;7.25;6.55;;;;;;;23.64;61.47;100718.41;6051644;23;20207;-74
2023/09/27 10:54:06;;;;;;;6.60;6.20;;;;;;;23.58;59.81;100686.09;6038292;23;20018;-70
2023/09/27 10:56:34;;;;;;;6.88;6.47;;;;;;;23.68;60.57;100727.78;6079641;23;20084;-70
2023/09/27 10:59:01;;;;;;;6.68;6.28;;;;;;;23.20;60.59;100681.13;6049174;23;20038;-71
2023/09/27 11:01:28;;;;;;;6.88;6.47;;;;;;;23.61;59.35;100715.22;6080807;23;20037;-70
2023/09/27 11:03:58;;;;;;;7.13;6.63;;;;;;;23.54;59.59;100741.00;6050125;23;20034;-71
2023/09/27 11:06:27;;;;;;;7.18;6.45;;;;;;;23.70;59.23;100752.56;6026978;23;20267;-71
2023/09/27 11:09:08;;;;;;;7.15;6.45;;;;;;;23.42;59.08;100749.31;6031901;23;20038;-72
2023/09/27 11:11:35;;;;;;;6.35;5.95;;;;;;;23.53;59.58;100809.78;6026771;23;20038;-71
2023/09/27 11:14:02;;;;;;;6.82;6.32;;;;;;;23.13;58.34;100698.84;6031717;23;20027;-71
2023/09/27 11:16:29;;;;;;;6.90;6.50;;;;;;;23.38;59.12;100817.59;6030419;23;20082;-73
2023/09/27 11:18:56;;;;;;;6.50;6.13;;;;;;;23.80;59.91;100881.09;6027560;23;20643;-70
2023/09/27 11:21:25;;;;;;;6.40;6.00;;;;;;;24.00;57.77;100830.72;6020326;23;20628;-71
2023/09/27 11:23:52;;;;;;;7.13;6.47;;;;;;;24.31;57.05;100821.22;6005308;23;20034;-71
2023/09/27 11:26:22;;;;;;;6.50;6.10;;;;;;;24.32;56.91;100895.31;6031279;23;20006;-71
2023/09/27 11:28:56;;;;;;;6.75;6.30;;;;;;;24.35;56.28;100838.66;6028991;23;20084;-71